Flight Track Log - Related Links

Times and Time Zones

All times are in EDT time to prevent confusion due to time zone crossing. See the GGN7321 flight status page for this flight to view local times or setup timezone preferences in your user account.

Time Position Orientation Groundspeed Altitude Reporting Facility
EDT Latitude Longitude Course Direction KTS MPH feet Rate Location/Type
Fri 09:21:34 PM 44.8500 -63.5000 245° Southwest 110 127 900  Level Moncton Center
Fri 09:22:34 PM 44.8333 -63.5500 245° Southwest 130 150 2,500 1,500 Climbing Moncton Center
Fri 09:23:34 PM 44.8833 -63.5667 347° North 200 230 3,900 1,350 Climbing Moncton Center
Fri 09:24:34 PM 44.9167 -63.6167 313° West 200 230 5,200 1,400 Climbing Moncton Center
Fri 09:25:34 PM 44.9833 -63.6667 332° Northwest 210 242 6,700 1,300 Climbing Moncton Center
Fri 09:26:34 PM 45.0333 -63.6833 347° North 220 253 7,800 1,250 Climbing Moncton Center
Fri 09:27:34 PM 45.0833 -63.7333 325° Northwest 210 242 9,200 1,150 Climbing Moncton Center
Fri 09:28:34 PM 45.1333 -63.7833 325° Northwest 220 253 10,100 1,000 Climbing Moncton Center
Fri 09:29:34 PM 45.2000 -63.8333 332° Northwest 230 265 11,200 950 Climbing Moncton Center
Fri 09:30:34 PM 45.2500 -63.8500 347° North 230 265 12,000 450 Climbing Moncton Center
Fri 09:31:34 PM 45.3000 -63.9000 325° Northwest 240 276 12,100 50 Climbing Moncton Center
Fri 09:32:34 PM 45.3667 -63.9667 325° Northwest 250 288 12,100  Level Moncton Center
Fri 09:33:34 PM 45.4333 -64.0000 341° North 250 288 12,100  Level Moncton Center
Fri 09:34:34 PM 45.5000 -64.0333 341° North 250 288 12,100 -50 Level Moncton Center
Fri 09:35:34 PM 45.5667 -64.0833 332° Northwest 260 299 12,000  Descending Moncton Center
Fri 09:36:34 PM 45.6167 -64.1333 325° Northwest 250 288 12,100 50 Climbing Moncton Center
Fri 09:37:34 PM 45.7000 -64.1833 337° Northwest 250 288 12,100 -50 Level Moncton Center
Fri 09:38:34 PM 45.7667 -64.2333 332° Northwest 260 299 12,000 -100 Descending Moncton Center
Fri 09:39:34 PM 45.8333 -64.2500 350° North 260 299 11,900 -1,000 Descending Moncton Center
Fri 09:40:34 PM 45.9167 -64.3000 337° Northwest 280 322 10,000 -1,500 Descending Moncton Center
Fri 09:41:34 PM 45.9833 -64.3167 350° North 290 334 8,900 -1,450 Descending Moncton Center
Fri 09:42:34 PM 46.0667 -64.3500 344° North 270 311 7,100 -1,850 Descending Moncton Center
Fri 09:43:34 PM 46.1333 -64.3667 350° North 260 299 5,200 -2,000 Descending Moncton Center
Fri 09:44:34 PM 46.2000 -64.4167 333° Northwest 250 288 3,100 -1,350 Descending Moncton Center
Fri 09:45:34 PM 46.2500 -64.4500 335° Northwest 210 242 2,500 -450 Descending Moncton Center
Fri 09:46:34 PM 46.2167 -64.5000 226° Southwest 140 161 2,200 -500 Descending Moncton Center
Fri 09:47:34 PM 46.2000 -64.5500 244° Southwest 130 150 1,500 -350 Descending Moncton Center
Fri 09:48:34 PM 46.1833 -64.5667 215° Southwest 130 150 1,500 -150 Level Moncton Center
Fri 09:49:34 PM 46.1500 -64.6167 226° Southwest 130 150 1,200 -350 Descending Moncton Center
Fri 09:50:34 PM 46.1333 -64.6333 215° Southwest 110 127 800 -450 Descending Moncton Center
Fri 09:51:34 PM 46.1167 -64.6667 234° Southwest 110 127 300 -250 Descending Moncton Center
Fri 09:52:34 PM 46.1000 -64.6833 215° Southwest 40 46 300  Level Moncton Center

Login

Don't have an account? Register now (free) for customized features, flight alerts, and more!